sensor_id;sensor_type;location;lat;lon;timestamp;temperature;humidity
12957;DHT22;6543;48.836;10.092;2023-03-20T00:00:42;9.80;99.90
12957;DHT22;6543;48.836;10.092;2023-03-20T00:03:15;8.50;99.90
12957;DHT22;6543;48.836;10.092;2023-03-20T00:05:42;6.30;99.90
12957;DHT22;6543;48.836;10.092;2023-03-20T00:08:09;7.90;99.90
12957;DHT22;6543;48.836;10.092;2023-03-20T00:10:39;9.30;99.90
12957;DHT22;6543;48.836;10.092;2023-03-20T00:13:11;8.10;99.90
12957;DHT22;6543;48.836;10.092;2023-03-20T00:15:41;9.60;99.90
12957;DHT22;6543;48.836;10.092;2023-03-20T00:18:14;9.10;99.90
12957;DHT22;6543;48.836;10.092;2023-03-20T00:20:43;9.40;99.90
12957;DHT22;6543;48.836;10.092;2023-03-20T00:23:10;8.10;99.90
12957;DHT22;6543;48.836;10.092;2023-03-20T00:25:38;7.90;99.90
12957;DHT22;6543;48.836;10.092;2023-03-20T00:31:22;7.90;99.90
12957;DHT22;6543;48.836;10.092;2023-03-20T00:33:52;8.80;99.90
12957;DHT22;6543;48.836;10.092;2023-03-20T00:36:19;9.00;99.90
12957;DHT22;6543;48.836;10.092;2023-03-20T00:38:46;9.60;99.90
12957;DHT22;6543;48.836;10.092;2023-03-20T00:41:24;8.90;99.90
12957;DHT22;6543;48.836;10.092;2023-03-20T00:43:55;7.90;99.90
12957;DHT22;6543;48.836;10.092;2023-03-20T00:46:23;9.70;99.90
12957;DHT22;6543;48.836;10.092;2023-03-20T00:48:51;10.00;99.90
12957;DHT22;6543;48.836;10.092;2023-03-20T00:51:19;8.90;99.90
12957;DHT22;6543;48.836;10.092;2023-03-20T00:53:46;7.90;99.90
12957;DHT22;6543;48.836;10.092;2023-03-20T00:56:29;9.70;99.90
12957;DHT22;6543;48.836;10.092;2023-03-20T00:58:58;8.20;99.90
12957;DHT22;6543;48.836;10.092;2023-03-20T01:01:26;7.90;99.90
12957;DHT22;6543;48.836;10.092;2023-03-20T01:03:55;9.70;99.90
12957;DHT22;6543;48.836;10.092;2023-03-20T01:06:22;9.20;99.90
12957;DHT22;6543;48.836;10.092;2023-03-20T01:08:48;7.30;99.90
12957;DHT22;6543;48.836;10.092;2023-03-20T01:11:20;6.30;99.90
12957;DHT22;6543;48.836;10.092;2023-03-20T01:13:48;7.60;99.90
12957;DHT22;6543;48.836;10.092;2023-03-20T01:16:21;7.60;99.90
12957;DHT22;6543;48.836;10.092;2023-03-20T01:18:49;7.70;99.90
12957;DHT22;6543;48.836;10.092;2023-03-20T01:21:19;8.20;99.90
12957;DHT22;6543;48.836;10.092;2023-03-20T01:23:47;8.70;99.90
12957;DHT22;6543;48.836;10.092;2023-03-20T01:26:23;8.80;99.90
12957;DHT22;6543;48.836;10.092;2023-03-20T01:28:52;9.10;99.90
12957;DHT22;6543;48.836;10.092;2023-03-20T01:31:19;6.60;99.90
12957;DHT22;6543;48.836;10.092;2023-03-20T01:33:46;8.20;99.90
12957;DHT22;6543;48.836;10.092;2023-03-20T01:36:15;7.90;99.90
12957;DHT22;6543;48.836;10.092;2023-03-20T01:38:45;9.30;99.90
12957;DHT22;6543;48.836;10.092;2023-03-20T01:41:14;9.40;99.90
12957;DHT22;6543;48.836;10.092;2023-03-20T01:43:43;9.20;99.90
12957;DHT22;6543;48.836;10.092;2023-03-20T01:46:17;7.50;99.90
12957;DHT22;6543;48.836;10.092;2023-03-20T01:49:00;8.30;99.90
12957;DHT22;6543;48.836;10.092;2023-03-20T01:51:28;7.70;99.90
12957;DHT22;6543;48.836;10.092;2023-03-20T01:54:01;9.30;99.90
12957;DHT22;6543;48.836;10.092;2023-03-20T01:56:31;7.90;99.90
12957;DHT22;6543;48.836;10.092;2023-03-20T01:59:01;7.90;99.90
12957;DHT22;6543;48.836;10.092;2023-03-20T02:01:29;9.70;99.90
12957;DHT22;6543;48.836;10.092;2023-03-20T02:03:56;8.00;99.90
12957;DHT22;6543;48.836;10.092;2023-03-20T02:06:24;8.00;99.90
12957;DHT22;6543;48.836;10.092;2023-03-20T02:08:52;9.30;99.90
12957;DHT22;6543;48.836;10.092;2023-03-20T02:11:22;7.90;99.90
12957;DHT22;6543;48.836;10.092;2023-03-20T02:13:50;9.20;99.90
12957;DHT22;6543;48.836;10.092;2023-03-20T02:16:18;10.20;99.90
12957;DHT22;6543;48.836;10.092;2023-03-20T02:18:47;8.10;99.90
12957;DHT22;6543;48.836;10.092;2023-03-20T02:21:45;8.10;99.90
12957;DHT22;6543;48.836;10.092;2023-03-20T02:24:51;8.10;99.90
12957;DHT22;6543;48.836;10.092;2023-03-20T02:27:29;8.10;99.90
12957;DHT22;6543;48.836;10.092;2023-03-20T02:30:27;10.00;99.90
12957;DHT22;6543;48.836;10.092;2023-03-20T02:33:26;8.10;99.90
12957;DHT22;6543;48.836;10.092;2023-03-20T02:36:21;8.10;99.90
12957;DHT22;6543;48.836;10.092;2023-03-20T02:39:13;8.10;99.90
12957;DHT22;6543;48.836;10.092;2023-03-20T02:41:48;8.20;99.90
12957;DHT22;6543;48.836;10.092;2023-03-20T02:44:22;6.60;99.90
12957;DHT22;6543;48.836;10.092;2023-03-20T02:46:55;9.90;99.90
12957;DHT22;6543;48.836;10.092;2023-03-20T02:49:51;9.70;99.90
12957;DHT22;6543;48.836;10.092;2023-03-20T02:52:25;8.20;99.90
12957;DHT22;6543;48.836;10.092;2023-03-20T02:55:07;8.20;99.90
12957;DHT22;6543;48.836;10.092;2023-03-20T02:57:42;8.20;99.90
12957;DHT22;6543;48.836;10.092;2023-03-20T03:00:14;8.20;99.90
12957;DHT22;6543;48.836;10.092;2023-03-20T03:02:49;8.20;99.90
12957;DHT22;6543;48.836;10.092;2023-03-20T03:05:21;8.10;99.90
12957;DHT22;6543;48.836;10.092;2023-03-20T03:07:50;8.20;99.90
12957;DHT22;6543;48.836;10.092;2023-03-20T03:10:22;8.20;99.90
12957;DHT22;6543;48.836;10.092;2023-03-20T03:12:51;8.20;99.90
12957;DHT22;6543;48.836;10.092;2023-03-20T03:15:22;8.20;99.90
12957;DHT22;6543;48.836;10.092;2023-03-20T03:17:50;8.20;99.90
12957;DHT22;6543;48.836;10.092;2023-03-20T03:20:21;8.20;99.90
12957;DHT22;6543;48.836;10.092;2023-03-20T03:22:49;8.20;99.90
12957;DHT22;6543;48.836;10.092;2023-03-20T03:25:16;8.30;99.90
12957;DHT22;6543;48.836;10.092;2023-03-20T03:27:47;8.20;99.90
12957;DHT22;6543;48.836;10.092;2023-03-20T03:30:19;8.20;99.90
12957;DHT22;6543;48.836;10.092;2023-03-20T03:33:00;8.20;99.90
12957;DHT22;6543;48.836;10.092;2023-03-20T03:35:32;8.20;99.90
12957;DHT22;6543;48.836;10.092;2023-03-20T03:38:02;8.20;99.90
12957;DHT22;6543;48.836;10.092;2023-03-20T03:40:36;8.10;99.90
12957;DHT22;6543;48.836;10.092;2023-03-20T03:43:13;8.20;99.90
12957;DHT22;6543;48.836;10.092;2023-03-20T03:45:45;8.20;99.90
12957;DHT22;6543;48.836;10.092;2023-03-20T03:48:18;8.20;99.90
12957;DHT22;6543;48.836;10.092;2023-03-20T03:50:48;8.20;99.90
12957;DHT22;6543;48.836;10.092;2023-03-20T03:53:19;8.20;99.90
12957;DHT22;6543;48.836;10.092;2023-03-20T03:55:50;8.10;99.90
12957;DHT22;6543;48.836;10.092;2023-03-20T03:58:22;8.10;99.90
12957;DHT22;6543;48.836;10.092;2023-03-20T04:00:53;8.10;99.90
12957;DHT22;6543;48.836;10.092;2023-03-20T04:03:23;8.10;99.90
12957;DHT22;6543;48.836;10.092;2023-03-20T04:05:53;8.10;99.90
12957;DHT22;6543;48.836;10.092;2023-03-20T04:08:21;8.10;99.90
12957;DHT22;6543;48.836;10.092;2023-03-20T04:10:48;9.40;99.90
12957;DHT22;6543;48.836;10.092;2023-03-20T04:13:15;8.20;99.90
12957;DHT22;6543;48.836;10.092;2023-03-20T04:15:43;8.20;99.90
12957;DHT22;6543;48.836;10.092;2023-03-20T04:18:14;8.10;99.90
12957;DHT22;6543;48.836;10.092;2023-03-20T04:20:41;8.10;99.90
12957;DHT22;6543;48.836;10.092;2023-03-20T04:23:08;8.10;99.90
12957;DHT22;6543;48.836;10.092;2023-03-20T04:25:35;8.10;99.90
12957;DHT22;6543;48.836;10.092;2023-03-20T04:28:03;8.10;99.90
12957;DHT22;6543;48.836;10.092;2023-03-20T04:30:30;8.00;99.90
12957;DHT22;6543;48.836;10.092;2023-03-20T04:32:58;8.00;99.90
12957;DHT22;6543;48.836;10.092;2023-03-20T04:35:25;8.10;99.90
12957;DHT22;6543;48.836;10.092;2023-03-20T04:37:52;8.00;99.90
12957;DHT22;6543;48.836;10.092;2023-03-20T04:40:18;8.10;99.90
12957;DHT22;6543;48.836;10.092;2023-03-20T04:42:46;8.00;99.90
12957;DHT22;6543;48.836;10.092;2023-03-20T04:45:12;8.00;99.90
12957;DHT22;6543;48.836;10.092;2023-03-20T04:47:39;8.00;99.90
12957;DHT22;6543;48.836;10.092;2023-03-20T04:50:09;8.00;99.90
12957;DHT22;6543;48.836;10.092;2023-03-20T04:52:36;8.00;99.90
12957;DHT22;6543;48.836;10.092;2023-03-20T04:55:03;8.00;99.90
12957;DHT22;6543;48.836;10.092;2023-03-20T04:57:31;8.00;99.90
12957;DHT22;6543;48.836;10.092;2023-03-20T04:59:58;8.10;99.90
12957;DHT22;6543;48.836;10.092;2023-03-20T05:02:25;8.00;99.90
12957;DHT22;6543;48.836;10.092;2023-03-20T05:04:52;8.00;99.90
12957;DHT22;6543;48.836;10.092;2023-03-20T05:07:20;8.00;99.90
12957;DHT22;6543;48.836;10.092;2023-03-20T05:09:47;8.10;99.90
12957;DHT22;6543;48.836;10.092;2023-03-20T05:12:14;8.00;99.90
12957;DHT22;6543;48.836;10.092;2023-03-20T05:14:41;8.00;99.90
12957;DHT22;6543;48.836;10.092;2023-03-20T05:17:08;8.00;99.90
12957;DHT22;6543;48.836;10.092;2023-03-20T05:19:35;8.00;99.90
12957;DHT22;6543;48.836;10.092;2023-03-20T05:22:03;8.00;99.90
12957;DHT22;6543;48.836;10.092;2023-03-20T05:24:32;8.00;99.90
12957;DHT22;6543;48.836;10.092;2023-03-20T05:26:58;8.00;99.90
12957;DHT22;6543;48.836;10.092;2023-03-20T05:29:25;8.00;99.90
12957;DHT22;6543;48.836;10.092;2023-03-20T05:31:52;8.00;99.90
12957;DHT22;6543;48.836;10.092;2023-03-20T05:34:20;8.00;99.90
12957;DHT22;6543;48.836;10.092;2023-03-20T05:36:47;8.00;99.90
12957;DHT22;6543;48.836;10.092;2023-03-20T05:39:14;8.00;99.90
12957;DHT22;6543;48.836;10.092;2023-03-20T05:41:42;9.40;99.90
12957;DHT22;6543;48.836;10.092;2023-03-20T05:44:09;8.00;99.90
12957;DHT22;6543;48.836;10.092;2023-03-20T05:46:36;8.00;99.90
12957;DHT22;6543;48.836;10.092;2023-03-20T05:49:03;8.00;99.90
12957;DHT22;6543;48.836;10.092;2023-03-20T05:51:30;8.00;99.90
12957;DHT22;6543;48.836;10.092;2023-03-20T05:53:58;8.10;99.90
12957;DHT22;6543;48.836;10.092;2023-03-20T05:56:25;8.10;99.90
12957;DHT22;6543;48.836;10.092;2023-03-20T05:58:54;8.20;99.90
12957;DHT22;6543;48.836;10.092;2023-03-20T06:01:21;8.10;99.90
12957;DHT22;6543;48.836;10.092;2023-03-20T06:03:47;8.20;99.90
12957;DHT22;6543;48.836;10.092;2023-03-20T06:06:15;8.10;99.90
12957;DHT22;6543;48.836;10.092;2023-03-20T06:08:42;8.20;99.90
12957;DHT22;6543;48.836;10.092;2023-03-20T06:11:09;8.20;99.90
12957;DHT22;6543;48.836;10.092;2023-03-20T06:13:36;8.20;99.90
12957;DHT22;6543;48.836;10.092;2023-03-20T06:16:06;8.30;99.90
12957;DHT22;6543;48.836;10.092;2023-03-20T06:18:33;8.30;99.90
12957;DHT22;6543;48.836;10.092;2023-03-20T06:21:00;8.30;99.90
12957;DHT22;6543;48.836;10.092;2023-03-20T06:23:27;8.30;99.90
12957;DHT22;6543;48.836;10.092;2023-03-20T06:25:53;8.30;99.90
12957;DHT22;6543;48.836;10.092;2023-03-20T06:28:20;8.30;99.90
12957;DHT22;6543;48.836;10.092;2023-03-20T06:30:50;8.30;99.90
12957;DHT22;6543;48.836;10.092;2023-03-20T06:33:19;8.40;99.90
12957;DHT22;6543;48.836;10.092;2023-03-20T06:35:47;8.20;99.90
12957;DHT22;6543;48.836;10.092;2023-03-20T06:38:15;8.30;99.90
12957;DHT22;6543;48.836;10.092;2023-03-20T06:40:42;8.40;99.90
12957;DHT22;6543;48.836;10.092;2023-03-20T06:43:09;8.40;99.90
12957;DHT22;6543;48.836;10.092;2023-03-20T06:45:37;8.40;99.90
12957;DHT22;6543;48.836;10.092;2023-03-20T06:48:05;8.40;99.90
12957;DHT22;6543;48.836;10.092;2023-03-20T06:50:33;8.50;99.90
12957;DHT22;6543;48.836;10.092;2023-03-20T06:53:00;8.50;99.90
12957;DHT22;6543;48.836;10.092;2023-03-20T06:55:27;8.50;99.90
12957;DHT22;6543;48.836;10.092;2023-03-20T06:57:54;8.50;99.90
12957;DHT22;6543;48.836;10.092;2023-03-20T07:00:21;8.60;99.90
12957;DHT22;6543;48.836;10.092;2023-03-20T07:02:48;8.60;99.90
12957;DHT22;6543;48.836;10.092;2023-03-20T07:05:15;8.60;99.90
12957;DHT22;6543;48.836;10.092;2023-03-20T07:07:44;8.70;99.90
12957;DHT22;6543;48.836;10.092;2023-03-20T07:10:11;8.90;99.90
12957;DHT22;6543;48.836;10.092;2023-03-20T07:12:40;8.90;99.90
12957;DHT22;6543;48.836;10.092;2023-03-20T07:15:07;9.80;99.90
12957;DHT22;6543;48.836;10.092;2023-03-20T07:17:34;9.10;99.90
12957;DHT22;6543;48.836;10.092;2023-03-20T07:20:01;9.20;99.90
12957;DHT22;6543;48.836;10.092;2023-03-20T07:22:29;9.20;99.90
12957;DHT22;6543;48.836;10.092;2023-03-20T07:24:57;9.30;99.90
12957;DHT22;6543;48.836;10.092;2023-03-20T07:27:24;9.30;99.90
12957;DHT22;6543;48.836;10.092;2023-03-20T07:29:51;9.40;99.90
12957;DHT22;6543;48.836;10.092;2023-03-20T07:32:18;9.40;99.90
12957;DHT22;6543;48.836;10.092;2023-03-20T07:34:45;9.50;99.90
12957;DHT22;6543;48.836;10.092;2023-03-20T07:37:14;9.50;99.90
12957;DHT22;6543;48.836;10.092;2023-03-20T07:39:41;10.60;99.90
12957;DHT22;6543;48.836;10.092;2023-03-20T07:42:10;9.70;99.90
12957;DHT22;6543;48.836;10.092;2023-03-20T07:44:38;9.80;99.90
12957;DHT22;6543;48.836;10.092;2023-03-20T07:47:05;10.00;99.90
12957;DHT22;6543;48.836;10.092;2023-03-20T07:49:32;9.90;99.90
12957;DHT22;6543;48.836;10.092;2023-03-20T07:51:59;10.70;99.90
12957;DHT22;6543;48.836;10.092;2023-03-20T07:54:26;9.90;99.90
12957;DHT22;6543;48.836;10.092;2023-03-20T07:56:53;9.90;99.90
12957;DHT22;6543;48.836;10.092;2023-03-20T07:59:22;11.50;99.90
12957;DHT22;6543;48.836;10.092;2023-03-20T08:01:49;10.00;99.90
12957;DHT22;6543;48.836;10.092;2023-03-20T08:04:16;11.30;99.90
12957;DHT22;6543;48.836;10.092;2023-03-20T08:06:46;10.10;99.90
12957;DHT22;6543;48.836;10.092;2023-03-20T08:09:13;9.90;99.90
12957;DHT22;6543;48.836;10.092;2023-03-20T08:11:40;10.50;99.90
12957;DHT22;6543;48.836;10.092;2023-03-20T08:14:08;9.80;99.90
12957;DHT22;6543;48.836;10.092;2023-03-20T08:16:38;9.90;99.90
12957;DHT22;6543;48.836;10.092;2023-03-20T08:19:05;9.70;99.90
12957;DHT22;6543;48.836;10.092;2023-03-20T08:21:32;9.90;99.90
12957;DHT22;6543;48.836;10.092;2023-03-20T08:23:59;9.90;99.90
12957;DHT22;6543;48.836;10.092;2023-03-20T08:26:26;10.40;99.90
12957;DHT22;6543;48.836;10.092;2023-03-20T08:28:53;10.70;99.90
12957;DHT22;6543;48.836;10.092;2023-03-20T08:31:23;10.40;99.90
12957;DHT22;6543;48.836;10.092;2023-03-20T08:33:54;10.20;99.90
12957;DHT22;6543;48.836;10.092;2023-03-20T08:36:21;10.60;99.90
12957;DHT22;6543;48.836;10.092;2023-03-20T08:38:48;10.50;99.90
12957;DHT22;6543;48.836;10.092;2023-03-20T08:41:16;10.80;99.90
12957;DHT22;6543;48.836;10.092;2023-03-20T08:43:44;12.00;99.90
12957;DHT22;6543;48.836;10.092;2023-03-20T08:46:12;10.80;99.90
12957;DHT22;6543;48.836;10.092;2023-03-20T08:48:39;11.00;99.90
12957;DHT22;6543;48.836;10.092;2023-03-20T08:51:07;11.10;99.90
12957;DHT22;6543;48.836;10.092;2023-03-20T08:53:34;12.30;99.90
12957;DHT22;6543;48.836;10.092;2023-03-20T08:56:01;10.90;99.90
12957;DHT22;6543;48.836;10.092;2023-03-20T08:58:28;11.10;99.90
12957;DHT22;6543;48.836;10.092;2023-03-20T09:00:55;12.90;99.90
12957;DHT22;6543;48.836;10.092;2023-03-20T09:03:24;10.70;99.90
12957;DHT22;6543;48.836;10.092;2023-03-20T09:05:51;12.50;99.90
12957;DHT22;6543;48.836;10.092;2023-03-20T09:08:20;12.30;99.90
12957;DHT22;6543;48.836;10.092;2023-03-20T09:10:47;11.90;99.90
12957;DHT22;6543;48.836;10.092;2023-03-20T09:13:14;12.70;99.90
12957;DHT22;6543;48.836;10.092;2023-03-20T09:15:41;13.30;99.90
12957;DHT22;6543;48.836;10.092;2023-03-20T09:18:09;11.40;99.90
12957;DHT22;6543;48.836;10.092;2023-03-20T09:20:36;11.50;99.90
12957;DHT22;6543;48.836;10.092;2023-03-20T09:23:03;11.70;99.90
12957;DHT22;6543;48.836;10.092;2023-03-20T09:25:31;12.10;99.90
12957;DHT22;6543;48.836;10.092;2023-03-20T09:27:58;12.40;99.90
12957;DHT22;6543;48.836;10.092;2023-03-20T09:30:25;11.90;99.90
12957;DHT22;6543;48.836;10.092;2023-03-20T09:32:52;12.10;99.90
12957;DHT22;6543;48.836;10.092;2023-03-20T09:35:19;12.10;99.90
12957;DHT22;6543;48.836;10.092;2023-03-20T09:37:47;12.30;99.90
12957;DHT22;6543;48.836;10.092;2023-03-20T09:40:22;12.00;99.90
12957;DHT22;6543;48.836;10.092;2023-03-20T09:42:59;11.80;99.90
12957;DHT22;6543;48.836;10.092;2023-03-20T09:45:39;12.70;99.90
12957;DHT22;6543;48.836;10.092;2023-03-20T09:48:14;12.00;99.90
12957;DHT22;6543;48.836;10.092;2023-03-20T09:50:47;10.70;99.90
12957;DHT22;6543;48.836;10.092;2023-03-20T09:53:23;12.20;99.90
12957;DHT22;6543;48.836;10.092;2023-03-20T09:55:51;12.30;99.90
12957;DHT22;6543;48.836;10.092;2023-03-20T09:58:23;12.10;99.90
12957;DHT22;6543;48.836;10.092;2023-03-20T10:00:54;11.40;99.90
12957;DHT22;6543;48.836;10.092;2023-03-20T10:03:26;12.60;99.90
12957;DHT22;6543;48.836;10.092;2023-03-20T10:05:58;12.90;99.90
12957;DHT22;6543;48.836;10.092;2023-03-20T10:08:31;13.00;99.90
12957;DHT22;6543;48.836;10.092;2023-03-20T10:11:06;13.80;99.90
12957;DHT22;6543;48.836;10.092;2023-03-20T10:16:46;13.40;99.90
12957;DHT22;6543;48.836;10.092;2023-03-20T10:19:22;13.60;99.90
12957;DHT22;6543;48.836;10.092;2023-03-20T10:21:57;13.10;99.90
12957;DHT22;6543;48.836;10.092;2023-03-20T10:24:28;13.00;99.90
12957;DHT22;6543;48.836;10.092;2023-03-20T10:27:02;13.40;99.90
12957;DHT22;6543;48.836;10.092;2023-03-20T10:29:44;13.70;99.90
12957;DHT22;6543;48.836;10.092;2023-03-20T10:32:19;15.60;99.90
12957;DHT22;6543;48.836;10.092;2023-03-20T10:35:00;14.20;99.90
12957;DHT22;6543;48.836;10.092;2023-03-20T10:37:40;14.20;99.90
12957;DHT22;6543;48.836;10.092;2023-03-20T10:40:26;14.40;99.90
12957;DHT22;6543;48.836;10.092;2023-03-20T10:42:58;14.10;99.90
12957;DHT22;6543;48.836;10.092;2023-03-20T10:45:32;14.30;99.90
12957;DHT22;6543;48.836;10.092;2023-03-20T10:48:05;13.80;99.90
12957;DHT22;6543;48.836;10.092;2023-03-20T10:50:38;14.00;99.90
12957;DHT22;6543;48.836;10.092;2023-03-20T10:53:07;13.80;99.90
12957;DHT22;6543;48.836;10.092;2023-03-20T10:55:37;13.50;99.90
12957;DHT22;6543;48.836;10.092;2023-03-20T10:58:13;13.10;99.90
12957;DHT22;6543;48.836;10.092;2023-03-20T11:00:44;13.00;99.90
12957;DHT22;6543;48.836;10.092;2023-03-20T11:03:19;13.10;99.90
12957;DHT22;6543;48.836;10.092;2023-03-20T11:05:55;11.90;99.90
12957;DHT22;6543;48.836;10.092;2023-03-20T11:08:30;13.00;99.90
12957;DHT22;6543;48.836;10.092;2023-03-20T11:11:01;13.50;99.90
12957;DHT22;6543;48.836;10.092;2023-03-20T11:13:31;12.70;99.90
12957;DHT22;6543;48.836;10.092;2023-03-20T11:16:10;13.70;99.90
12957;DHT22;6543;48.836;10.092;2023-03-20T11:18:39;12.20;99.90
12957;DHT22;6543;48.836;10.092;2023-03-20T11:21:11;12.30;99.90
12957;DHT22;6543;48.836;10.092;2023-03-20T11:23:40;12.80;99.90
12957;DHT22;6543;48.836;10.092;2023-03-20T11:26:11;12.80;99.90
12957;DHT22;6543;48.836;10.092;2023-03-20T11:28:46;12.60;99.90
12957;DHT22;6543;48.836;10.092;2023-03-20T11:31:19;12.70;99.90
12957;DHT22;6543;48.836;10.092;2023-03-20T11:33:51;12.90;99.90
12957;DHT22;6543;48.836;10.092;2023-03-20T11:36:23;14.20;99.90
12957;DHT22;6543;48.836;10.092;2023-03-20T11:38:58;12.60;99.90
12957;DHT22;6543;48.836;10.092;2023-03-20T11:41:41;12.60;99.90
12957;DHT22;6543;48.836;10.092;2023-03-20T11:44:26;12.50;99.90
12957;DHT22;6543;48.836;10.092;2023-03-20T11:46:56;12.90;99.90
12957;DHT22;6543;48.836;10.092;2023-03-20T11:49:24;12.80;99.90
12957;DHT22;6543;48.836;10.092;2023-03-20T11:51:56;12.60;99.90
12957;DHT22;6543;48.836;10.092;2023-03-20T11:54:31;12.70;99.90
12957;DHT22;6543;48.836;10.092;2023-03-20T11:56:59;12.80;99.90
12957;DHT22;6543;48.836;10.092;2023-03-20T11:59:30;13.00;99.90
12957;DHT22;6543;48.836;10.092;2023-03-20T12:02:02;12.90;99.90
12957;DHT22;6543;48.836;10.092;2023-03-20T12:04:31;12.60;99.90
12957;DHT22;6543;48.836;10.092;2023-03-20T12:07:03;12.40;99.90
12957;DHT22;6543;48.836;10.092;2023-03-20T12:09:39;13.50;99.90
12957;DHT22;6543;48.836;10.092;2023-03-20T12:12:32;14.00;99.90
12957;DHT22;6543;48.836;10.092;2023-03-20T12:15:04;12.50;99.90
12957;DHT22;6543;48.836;10.092;2023-03-20T12:31:04;12.70;99.90
12957;DHT22;6543;48.836;10.092;2023-03-20T12:33:38;13.00;99.90
12957;DHT22;6543;48.836;10.092;2023-03-20T12:36:12;13.10;99.90
12957;DHT22;6543;48.836;10.092;2023-03-20T12:38:44;13.10;99.90
12957;DHT22;6543;48.836;10.092;2023-03-20T12:41:14;14.20;99.90
12957;DHT22;6543;48.836;10.092;2023-03-20T12:44:09;12.50;99.90
12957;DHT22;6543;48.836;10.092;2023-03-20T12:46:44;12.50;99.90
12957;DHT22;6543;48.836;10.092;2023-03-20T12:49:22;12.50;99.90
12957;DHT22;6543;48.836;10.092;2023-03-20T12:52:00;12.60;99.90
12957;DHT22;6543;48.836;10.092;2023-03-20T12:54:52;13.30;99.90
12957;DHT22;6543;48.836;10.092;2023-03-20T12:57:25;13.50;99.90
12957;DHT22;6543;48.836;10.092;2023-03-20T13:00:10;13.30;99.90
12957;DHT22;6543;48.836;10.092;2023-03-20T13:02:53;13.20;99.90
12957;DHT22;6543;48.836;10.092;2023-03-20T13:05:31;13.20;99.90
12957;DHT22;6543;48.836;10.092;2023-03-20T13:08:09;13.40;99.90
12957;DHT22;6543;48.836;10.092;2023-03-20T13:10:47;12.90;99.90
12957;DHT22;6543;48.836;10.092;2023-03-20T13:13:20;13.00;99.90
12957;DHT22;6543;48.836;10.092;2023-03-20T13:16:01;12.70;99.90
12957;DHT22;6543;48.836;10.092;2023-03-20T13:18:44;13.10;99.90
12957;DHT22;6543;48.836;10.092;2023-03-20T13:21:18;12.90;99.90
12957;DHT22;6543;48.836;10.092;2023-03-20T13:23:55;12.90;99.90
12957;DHT22;6543;48.836;10.092;2023-03-20T13:26:32;13.20;99.90
12957;DHT22;6543;48.836;10.092;2023-03-20T13:29:05;13.10;99.90
12957;DHT22;6543;48.836;10.092;2023-03-20T13:31:50;13.00;99.90
12957;DHT22;6543;48.836;10.092;2023-03-20T13:34:31;14.10;99.90
12957;DHT22;6543;48.836;10.092;2023-03-20T13:37:09;13.00;99.90
12957;DHT22;6543;48.836;10.092;2023-03-20T13:39:41;13.10;99.90
12957;DHT22;6543;48.836;10.092;2023-03-20T13:42:16;14.20;99.90
12957;DHT22;6543;48.836;10.092;2023-03-20T13:44:46;13.20;99.90
12957;DHT22;6543;48.836;10.092;2023-03-20T13:47:19;13.10;99.90
12957;DHT22;6543;48.836;10.092;2023-03-20T13:50:00;13.40;99.90
12957;DHT22;6543;48.836;10.092;2023-03-20T13:52:36;13.30;99.90
12957;DHT22;6543;48.836;10.092;2023-03-20T13:55:18;13.30;99.90
12957;DHT22;6543;48.836;10.092;2023-03-20T13:58:02;13.20;99.90
12957;DHT22;6543;48.836;10.092;2023-03-20T14:00:38;13.50;99.90
12957;DHT22;6543;48.836;10.092;2023-03-20T14:03:21;13.10;99.90
12957;DHT22;6543;48.836;10.092;2023-03-20T14:05:54;13.10;99.90
12957;DHT22;6543;48.836;10.092;2023-03-20T14:08:28;14.60;99.90
12957;DHT22;6543;48.836;10.092;2023-03-20T14:11:07;13.40;99.90
12957;DHT22;6543;48.836;10.092;2023-03-20T14:13:39;13.50;99.90
12957;DHT22;6543;48.836;10.092;2023-03-20T14:16:10;13.70;99.90
12957;DHT22;6543;48.836;10.092;2023-03-20T14:18:41;13.60;99.90
12957;DHT22;6543;48.836;10.092;2023-03-20T14:21:12;13.60;99.90
12957;DHT22;6543;48.836;10.092;2023-03-20T14:23:42;14.30;99.90
12957;DHT22;6543;48.836;10.092;2023-03-20T14:26:19;14.00;99.90
12957;DHT22;6543;48.836;10.092;2023-03-20T14:28:58;14.30;99.90
12957;DHT22;6543;48.836;10.092;2023-03-20T14:31:28;13.10;99.90
12957;DHT22;6543;48.836;10.092;2023-03-20T14:34:13;14.40;99.90
12957;DHT22;6543;48.836;10.092;2023-03-20T14:36:50;14.10;99.90
12957;DHT22;6543;48.836;10.092;2023-03-20T14:39:24;14.40;99.90
12957;DHT22;6543;48.836;10.092;2023-03-20T14:42:01;14.50;99.90
12957;DHT22;6543;48.836;10.092;2023-03-20T14:44:43;14.50;99.90
12957;DHT22;6543;48.836;10.092;2023-03-20T14:47:28;13.50;99.90
12957;DHT22;6543;48.836;10.092;2023-03-20T14:50:04;14.40;99.90
12957;DHT22;6543;48.836;10.092;2023-03-20T14:52:44;14.20;99.90
12957;DHT22;6543;48.836;10.092;2023-03-20T14:55:33;14.00;99.90
12957;DHT22;6543;48.836;10.092;2023-03-20T14:58:48;14.10;99.90
12957;DHT22;6543;48.836;10.092;2023-03-20T15:04:28;14.00;99.90
12957;DHT22;6543;48.836;10.092;2023-03-20T15:07:02;14.20;99.90
12957;DHT22;6543;48.836;10.092;2023-03-20T15:09:44;14.30;99.90
12957;DHT22;6543;48.836;10.092;2023-03-20T15:12:16;14.70;99.90
12957;DHT22;6543;48.836;10.092;2023-03-20T15:14:52;12.10;99.90
12957;DHT22;6543;48.836;10.092;2023-03-20T15:17:33;14.50;99.90
12957;DHT22;6543;48.836;10.092;2023-03-20T15:20:11;14.20;99.90
12957;DHT22;6543;48.836;10.092;2023-03-20T15:22:48;14.50;99.90
12957;DHT22;6543;48.836;10.092;2023-03-20T15:25:21;13.30;99.90
12957;DHT22;6543;48.836;10.092;2023-03-20T15:27:57;13.40;99.90
12957;DHT22;6543;48.836;10.092;2023-03-20T15:30:35;13.10;99.90
12957;DHT22;6543;48.836;10.092;2023-03-20T15:33:10;12.10;99.90
12957;DHT22;6543;48.836;10.092;2023-03-20T15:35:40;12.80;99.90
12957;DHT22;6543;48.836;10.092;2023-03-20T15:38:16;13.00;99.90
12957;DHT22;6543;48.836;10.092;2023-03-20T15:40:46;14.60;99.90
12957;DHT22;6543;48.836;10.092;2023-03-20T15:43:17;13.20;99.90
12957;DHT22;6543;48.836;10.092;2023-03-20T15:46:01;12.90;99.90
12957;DHT22;6543;48.836;10.092;2023-03-20T15:48:32;12.90;99.90
12957;DHT22;6543;48.836;10.092;2023-03-20T15:51:03;12.80;99.90
12957;DHT22;6543;48.836;10.092;2023-03-20T15:53:35;12.70;99.90
12957;DHT22;6543;48.836;10.092;2023-03-20T15:56:15;12.40;99.90
12957;DHT22;6543;48.836;10.092;2023-03-20T15:58:52;11.10;99.90
12957;DHT22;6543;48.836;10.092;2023-03-20T16:01:23;11.70;99.90
12957;DHT22;6543;48.836;10.092;2023-03-20T16:04:06;12.50;99.90
12957;DHT22;6543;48.836;10.092;2023-03-20T16:06:34;12.60;99.90
12957;DHT22;6543;48.836;10.092;2023-03-20T16:09:07;12.40;99.90
12957;DHT22;6543;48.836;10.092;2023-03-20T16:11:39;12.50;99.90
12957;DHT22;6543;48.836;10.092;2023-03-20T16:14:11;12.40;99.90
12957;DHT22;6543;48.836;10.092;2023-03-20T16:16:58;12.40;99.90
12957;DHT22;6543;48.836;10.092;2023-03-20T16:19:30;12.30;99.90
12957;DHT22;6543;48.836;10.092;2023-03-20T16:22:11;11.60;99.90
12957;DHT22;6543;48.836;10.092;2023-03-20T16:24:44;12.30;99.90
12957;DHT22;6543;48.836;10.092;2023-03-20T16:27:24;12.30;99.90
12957;DHT22;6543;48.836;10.092;2023-03-20T16:29:55;12.40;99.90